Time;durP1;ratioP1;P1;durP2;ratioP2;P2;SDS_P1;SDS_P2;PMS_P1;PMS_P2;Temp;Humidity;BMP_temperature;BMP_pressure;BME280_temperature;BME280_humidity;BME280_pressure;Samples;Min_cycle;Max_cycle;Signal;HPM_P1;HPM_P2
2021/12/03 00:00:19;;;;;;;;;12.50;10.00;;;;;5.39;64.37;101195.88;5078260;28;45461;-54
2021/12/03 00:02:44;;;;;;;;;8.00;8.00;;;;;5.37;64.95;101193.34;5078422;28;45267;-51
2021/12/03 00:05:10;;;;;;;;;12.50;9.00;;;;;5.37;64.41;101189.84;5078193;28;45304;-55
2021/12/03 00:07:37;;;;;;;;;17.50;9.00;;;;;5.36;65.12;101191.66;5078013;28;45984;-54
2021/12/03 00:10:06;;;;;;;;;8.00;2.00;;;;;5.29;64.48;101173.69;5078028;28;45437;-53
2021/12/03 00:12:32;;;;;;;;;13.75;9.25;;;;;5.32;64.83;101179.63;5077872;28;45987;-54
2021/12/03 00:14:57;;;;;;;;;16.25;11.00;;;;;5.32;65.35;101182.25;5060133;28;45335;-54
2021/12/03 00:17:23;;;;;;;;;10.00;9.25;;;;;5.31;64.48;101187.59;5078012;28;45974;-49
2021/12/03 00:19:48;;;;;;;;;10.00;10.00;;;;;5.31;65.00;101195.53;5077818;28;45409;-55
2021/12/03 00:22:14;;;;;;;;;13.00;11.00;;;;;5.30;65.49;101188.56;5078158;28;45261;-51
2021/12/03 00:24:39;;;;;;;;;18.75;9.25;;;;;5.31;65.25;101192.88;5077982;28;45543;-53
2021/12/03 00:27:06;;;;;;;;;14.00;9.25;;;;;5.30;64.90;101191.19;5077496;28;47025;-52
2021/12/03 00:29:31;;;;;;;;;19.00;13.50;;;;;5.30;64.45;101186.78;5077715;28;45360;-53
2021/12/03 00:31:57;;;;;;;;;11.75;10.50;;;;;5.30;64.77;101185.94;5077684;28;45302;-52
2021/12/03 00:34:23;;;;;;;;;14.25;8.25;;;;;5.31;65.35;101187.59;5077994;28;45408;-49
2021/12/03 00:36:48;;;;;;;;;9.50;9.25;;;;;5.30;64.61;101184.13;5059314;28;47317;-50
2021/12/03 00:39:14;;;;;;;;;7.50;7.50;;;;;5.32;65.33;101187.53;5077674;28;45453;-53
2021/12/03 00:41:46;;;;;;;;;9.50;8.00;;;;;5.33;65.09;101183.94;5077690;28;45779;-54
2021/12/03 00:44:12;;;;;;;;;8.75;8.75;;;;;5.34;64.82;101182.13;5076494;28;45307;-53
2021/12/03 00:46:38;;;;;;;;;9.25;8.00;;;;;5.33;65.26;101188.38;5077390;28;47222;-51
2021/12/03 00:49:03;;;;;;;;;15.25;11.00;;;;;5.35;65.17;101189.09;5077321;28;45373;-51
2021/12/03 00:51:28;;;;;;;;;12.00;9.50;;;;;5.35;65.48;101195.25;5077393;28;45335;-55
2021/12/03 00:53:54;;;;;;;;;10.50;8.50;;;;;5.35;64.62;101189.97;5077690;28;45386;-52
2021/12/03 00:56:19;;;;;;;;;8.75;8.75;;;;;5.36;64.72;101196.09;5077285;28;45696;-53
2021/12/03 00:58:45;;;;;;;;;16.25;12.75;;;;;5.36;64.53;101204.84;5077282;28;45388;-51
2021/12/03 01:01:11;;;;;;;;;16.50;8.50;;;;;5.35;65.20;101203.16;5077512;28;45304;-52
2021/12/03 01:03:38;;;;;;;;;14.50;10.75;;;;;5.37;65.15;101208.31;5077415;28;45372;-50
2021/12/03 01:06:04;;;;;;;;;11.00;10.00;;;;;5.38;65.55;101216.13;5077289;28;46477;-52
2021/12/03 01:08:31;;;;;;;;;12.00;8.00;;;;;5.39;65.23;101219.59;5077207;28;45237;-54
2021/12/03 01:10:58;;;;;;;;;10.50;10.50;;;;;5.41;64.73;101215.09;5077371;28;45361;-54
2021/12/03 01:13:23;;;;;;;;;14.25;8.50;;;;;5.37;64.96;101206.53;5077114;28;45439;-57
2021/12/03 01:15:50;;;;;;;;;10.75;8.50;;;;;5.42;64.88;101222.06;5077109;28;46268;-52
2021/12/03 01:18:16;;;;;;;;;12.50;7.75;;;;;5.43;64.99;101218.47;5077025;28;45341;-56
2021/12/03 01:20:42;;;;;;;;;14.00;9.50;;;;;5.46;64.48;101226.19;5077186;28;45513;-55
2021/12/03 01:23:10;;;;;;;;;11.00;8.75;;;;;5.48;64.59;101225.13;5077132;28;45426;-57
2021/12/03 01:25:36;;;;;;;;;9.00;8.25;;;;;5.48;64.76;101217.22;5076637;28;47379;-55
2021/12/03 01:28:02;;;;;;;;;8.50;7.00;;;;;5.50;65.05;101225.03;5076745;28;45383;-56
2021/12/03 01:30:29;;;;;;;;;8.50;8.00;;;;;5.51;64.24;101235.47;5077274;28;45325;-55
2021/12/03 01:32:57;;;;;;;;;12.00;8.75;;;;;5.52;64.36;101233.72;5077324;28;45462;-53
2021/12/03 01:35:23;;;;;;;;;8.25;7.50;;;;;5.42;64.79;101208.84;5076668;28;45470;-56
2021/12/03 01:37:49;;;;;;;;;7.00;7.00;;;;;5.53;64.62;101222.19;5077049;28;45300;-57
2021/12/03 01:40:19;;;;;;;;;11.50;8.00;;;;;5.56;64.52;101232.53;5077050;28;45282;-55
2021/12/03 01:42:45;;;;;;;;;9.75;8.00;;;;;5.56;64.65;101232.53;5076816;28;45296;-57
2021/12/03 01:45:17;;;;;;;;;10.00;7.50;;;;;5.62;64.69;101224.22;5076355;28;46207;-56
2021/12/03 01:47:45;;;;;;;;;11.50;9.50;;;;;5.55;64.94;101209.72;5076419;28;45317;-57
2021/12/03 01:50:12;;;;;;;;;13.75;8.50;;;;;5.66;64.82;101228.34;5076678;28;45475;-55
2021/12/03 01:52:38;;;;;;;;;11.50;9.00;;;;;5.66;64.24;101233.63;5076909;28;45347;-57
2021/12/03 01:55:08;;;;;;;;;11.50;11.00;;;;;5.67;64.89;101239.72;5076852;28;47295;-51
2021/12/03 01:57:34;;;;;;;;;11.00;10.00;;;;;5.64;64.33;101238.13;5080111;28;45394;-53
2021/12/03 01:59:59;;;;;;;;;12.50;12.50;;;;;5.47;64.50;101210.22;5080050;28;45414;-57
2021/12/03 02:02:26;;;;;;;;;19.00;13.00;;;;;5.54;65.12;101241.50;5080404;28;45369;-55
2021/12/03 02:04:52;;;;;;;;;14.75;12.00;;;;;5.47;65.26;101248.97;5061855;28;47081;-53
2021/12/03 02:07:17;;;;;;;;;9.00;8.50;;;;;5.45;65.47;101240.31;5079936;28;45433;-56
2021/12/03 02:09:43;;;;;;;;;14.25;10.25;;;;;5.45;64.62;101238.53;5080089;28;45333;-56
2021/12/03 02:12:08;;;;;;;;;21.50;13.25;;;;;5.44;65.34;101242.13;5080223;28;45443;-51
2021/12/03 02:14:34;;;;;;;;;18.25;14.25;;;;;5.43;65.74;101248.31;5079381;28;46781;-54
2021/12/03 02:16:59;;;;;;;;;14.50;10.00;;;;;5.45;65.68;101251.72;5079997;28;45368;-54
2021/12/03 02:19:25;;;;;;;;;14.75;5.75;;;;;5.47;65.70;101233.13;5079892;28;45299;-55
2021/12/03 02:21:50;;;;;;;;;15.00;11.00;;;;;5.46;65.65;101223.53;5080067;28;45225;-55
2021/12/03 02:24:21;;;;;;;;;9.00;9.00;;;;;5.48;65.33;101234.84;5079703;28;46433;-53
2021/12/03 02:26:46;;;;;;;;;15.75;9.25;;;;;5.47;64.84;101228.69;5079719;28;45301;-57
2021/12/03 02:29:11;;;;;;;;;13.00;11.75;;;;;5.49;65.06;101236.53;5079451;28;45453;-57
2021/12/03 02:31:37;;;;;;;;;10.00;9.75;;;;;5.49;65.05;101239.19;5079727;28;45509;-54
2021/12/03 02:34:02;;;;;;;;;11.00;8.00;;;;;5.49;64.89;101240.03;5079602;28;45430;-56
2021/12/03 02:36:28;;;;;;;;;16.50;12.00;;;;;5.45;64.52;101229.78;5079409;28;45313;-55
2021/12/03 02:38:53;;;;;;;;;17.75;13.75;;;;;5.46;64.84;101237.56;5079514;28;45387;-56
2021/12/03 02:41:19;;;;;;;;;13.75;7.25;;;;;5.45;64.32;101227.97;5080008;28;45294;-56
2021/12/03 02:43:44;;;;;;;;;7.00;4.25;;;;;5.50;64.89;101231.16;5078936;28;45867;-55
2021/12/03 02:46:10;;;;;;;;;15.50;9.00;;;;;5.55;64.93;101236.13;5079608;28;45383;-56
2021/12/03 02:48:36;;;;;;;;;14.00;11.50;;;;;5.55;65.27;101236.13;5079354;28;45403;-55
2021/12/03 02:51:04;;;;;;;;;11.00;9.50;;;;;5.58;64.25;101235.91;5079727;28;45371;-57
2021/12/03 02:53:29;;;;;;;;;14.25;7.00;;;;;5.58;64.42;101230.63;5079265;28;45395;-54
2021/12/03 02:55:55;;;;;;;;;9.50;8.25;;;;;5.61;64.15;101233.09;5078934;28;45307;-55
2021/12/03 02:58:21;;;;;;;;;12.00;11.00;;;;;5.62;64.07;101220.72;5079552;28;45234;-57
2021/12/03 03:00:48;;;;;;;;;13.75;11.00;;;;;5.60;64.58;101222.59;5079687;28;45283;-56
2021/12/03 03:03:14;;;;;;;;;11.00;10.00;;;;;5.62;64.07;101210.16;5079302;28;47220;-60
2021/12/03 03:05:39;;;;;;;;;11.00;11.00;;;;;5.62;64.40;101203.09;5079190;28;45409;-53
2021/12/03 03:08:05;;;;;;;;;10.25;9.00;;;;;5.59;64.55;101200.66;5078597;28;45359;-50
2021/12/03 03:10:35;;;;;;;;;21.50;11.75;;;;;5.52;64.49;101186.22;5080738;28;45222;-52
2021/12/03 03:13:01;;;;;;;;;12.75;8.25;;;;;5.57;64.37;101196.44;5062715;28;47328;-52
2021/12/03 03:15:28;;;;;;;;;14.25;9.00;;;;;5.49;64.38;101184.59;5080712;28;45380;-53
2021/12/03 03:17:53;;;;;;;;;13.50;11.25;;;;;5.43;64.49;101190.28;5081205;28;45437;-52
2021/12/03 03:20:19;;;;;;;;;15.00;12.75;;;;;5.46;64.99;101189.25;5080151;28;45922;-55
2021/12/03 03:22:47;;;;;;;;;13.75;11.00;;;;;5.41;64.66;101192.19;5080175;28;45197;-56
2021/12/03 03:25:15;;;;;;;;;12.00;8.00;;;;;5.43;64.73;101192.91;5079679;28;45263;-51
2021/12/03 03:27:42;;;;;;;;;9.75;8.75;;;;;5.46;64.86;101184.81;5078759;28;45269;-51
2021/12/03 03:30:11;;;;;;;;;12.25;12.25;;;;;5.47;64.57;101185.63;5078838;28;45390;-51
2021/12/03 03:32:37;;;;;;;;;13.25;10.00;;;;;5.39;64.84;101196.69;5078504;28;46304;-50
2021/12/03 03:35:04;;;;;;;;;14.50;14.50;;;;;5.36;64.53;101194.28;5078541;28;45313;-50
2021/12/03 03:37:29;;;;;;;;;14.50;14.50;;;;;5.32;65.18;101184.88;5078783;28;45378;-52
2021/12/03 03:39:55;;;;;;;;;13.50;11.25;;;;;5.24;65.16;101166.94;5060660;28;45548;-52
2021/12/03 03:42:20;;;;;;;;;19.00;12.25;;;;;5.28;65.07;101175.50;5078562;28;46283;-57
2021/12/03 03:44:46;;;;;;;;;12.00;12.00;;;;;5.35;65.01;101194.38;5078094;28;45443;-52
2021/12/03 03:47:12;;;;;;;;;17.50;10.00;;;;;5.32;65.16;101182.25;5078485;28;45480;-49
2021/12/03 03:49:38;;;;;;;;;12.75;10.75;;;;;5.34;64.71;101185.63;5078958;28;45371;-54
2021/12/03 03:52:04;;;;;;;;;15.00;10.50;;;;;5.37;64.13;101189.84;5078125;28;46443;-53
2021/12/03 03:54:30;;;;;;;;;13.00;8.00;;;;;5.40;65.02;101195.78;5078341;28;45360;-48
2021/12/03 03:56:55;;;;;;;;;15.25;11.00;;;;;5.38;64.69;101188.91;5078423;28;45602;-52
2021/12/03 03:59:21;;;;;;;;;15.75;12.00;;;;;5.43;64.38;101189.44;5078561;28;45319;-53
2021/12/03 04:01:48;;;;;;;;;10.25;10.00;;;;;5.36;65.12;101182.91;5078186;28;46318;-53
2021/12/03 04:04:15;;;;;;;;;4.50;4.50;;;;;5.36;64.51;101182.91;5078158;28;45436;-54
2021/12/03 04:06:41;;;;;;;;;18.25;11.75;;;;;5.33;64.99;101180.47;5078090;28;45619;-49
2021/12/03 04:09:07;;;;;;;;;13.75;9.00;;;;;5.31;65.09;101184.97;5078505;28;45439;-52
2021/12/03 04:11:32;;;;;;;;;13.50;11.25;;;;;5.30;64.62;101173.56;5077963;28;45299;-53
2021/12/03 04:13:58;;;;;;;;;13.00;9.50;;;;;5.29;64.59;101182.44;5077987;28;45423;-52
2021/12/03 04:16:23;;;;;;;;;7.00;7.00;;;;;5.27;65.06;101173.81;5077969;28;45487;-53
2021/12/03 04:18:49;;;;;;;;;15.75;9.50;;;;;5.25;64.37;101168.63;5078070;28;45434;-53
2021/12/03 04:21:15;;;;;;;;;9.50;9.00;;;;;5.24;64.92;101159.00;5077388;28;46396;-54
2021/12/03 04:23:42;;;;;;;;;10.50;9.50;;;;;5.22;64.40;101160.06;5077619;28;45423;-51
2021/12/03 04:26:08;;;;;;;;;6.25;4.00;;;;;5.22;64.40;101170.59;5077528;28;45382;-57
2021/12/03 04:28:34;;;;;;;;;11.00;9.00;;;;;5.22;64.10;101181.16;5078131;28;45571;-53
2021/12/03 04:31:00;;;;;;;;;5.00;5.00;;;;;5.19;64.84;101187.50;5077383;28;46320;-53
2021/12/03 04:33:26;;;;;;;;;18.50;8.75;;;;;5.17;64.12;101192.00;5078118;28;45313;-53
2021/12/03 04:35:52;;;;;;;;;7.50;7.50;;;;;5.19;64.98;101187.50;5079393;28;45365;-52
2021/12/03 04:38:18;;;;;;;;;8.50;8.00;;;;;5.21;65.08;101192.66;5077827;28;45310;-49
2021/12/03 04:40:44;;;;;;;;;7.50;7.00;;;;;5.19;63.99;101160.28;5079691;28;45955;-53
2021/12/03 04:43:10;;;;;;;;;11.00;8.75;;;;;5.20;64.13;101172.50;5081738;28;45154;-50
2021/12/03 04:45:36;;;;;;;;;10.00;7.25;;;;;5.15;63.83;101178.09;5080957;28;45426;-53
2021/12/03 04:48:03;;;;;;;;;17.50;10.00;;;;;5.09;64.35;101167.94;5064764;28;45278;-50
2021/12/03 04:50:32;;;;;;;;;11.00;9.50;;;;;5.09;64.18;101159.19;5062516;28;46075;-50
2021/12/03 04:52:58;;;;;;;;;12.00;8.75;;;;;5.04;64.51;101167.41;5080071;28;45329;-53
2021/12/03 04:55:24;;;;;;;;;8.25;8.00;;;;;4.98;65.33;101163.38;5077028;28;45183;-53
2021/12/03 04:57:53;;;;;;;;;7.75;7.00;;;;;4.92;64.43;101155.00;5077428;28;45285;-50
2021/12/03 05:00:21;;;;;;;;;6.00;5.00;;;;;4.96;64.75;101174.97;5076665;28;46297;-50
2021/12/03 05:02:47;;;;;;;;;8.00;4.50;;;;;4.94;64.59;101184.78;5076954;28;45289;-52
2021/12/03 05:05:12;;;;;;;;;8.00;5.00;;;;;4.94;64.73;101167.16;5076833;28;45324;-52
2021/12/03 05:10:05;;;;;;;;;13.75;9.50;;;;;4.97;64.34;101161.69;5076825;28;45718;-53
2021/12/03 05:12:30;;;;;;;;;4.75;4.75;;;;;4.95;64.46;101162.72;5076793;28;45285;-52
2021/12/03 05:14:56;;;;;;;;;12.50;7.00;;;;;4.93;65.18;101146.16;5076789;28;45336;-50
2021/12/03 05:17:21;;;;;;;;;11.50;7.00;;;;;4.92;64.44;101141.84;5077121;28;45395;-57
2021/12/03 05:19:47;;;;;;;;;4.50;4.50;;;;;4.90;65.28;101138.47;5076609;28;46101;-51
2021/12/03 05:22:14;;;;;;;;;10.75;8.25;;;;;4.77;64.77;101112.06;5076724;28;45260;-53
2021/12/03 05:24:40;;;;;;;;;7.25;4.00;;;;;4.87;65.18;101128.13;5076554;28;45425;-52
2021/12/03 05:27:06;;;;;;;;;7.75;5.00;;;;;4.87;64.96;101125.47;5077189;28;45424;-51
2021/12/03 05:29:32;;;;;;;;;9.50;7.50;;;;;4.88;64.12;101133.28;5077079;28;46025;-50
2021/12/03 05:31:58;;;;;;;;;8.00;7.00;;;;;4.90;64.93;101135.84;5079958;28;45305;-50
2021/12/03 05:34:24;;;;;;;;;11.00;8.25;;;;;4.91;64.16;101148.06;5080544;28;45618;-49
2021/12/03 05:36:50;;;;;;;;;10.75;8.00;;;;;4.90;64.82;101138.47;5080853;28;45455;-51
2021/12/03 05:39:15;;;;;;;;;8.50;8.25;;;;;4.90;64.98;101128.75;5080274;28;46105;-53
2021/12/03 05:41:41;;;;;;;;;7.25;7.25;;;;;4.85;65.09;101120.31;5080706;28;45265;-49
2021/12/03 05:44:07;;;;;;;;;8.75;7.00;;;;;4.89;64.47;101131.50;5080233;28;45292;-52
2021/12/03 05:46:35;;;;;;;;;14.00;8.25;;;;;4.91;64.90;101122.53;5080484;28;45532;-52
2021/12/03 05:49:01;;;;;;;;;13.50;10.50;;;;;4.90;64.27;101126.13;5080244;28;45365;-51
2021/12/03 05:51:28;;;;;;;;;8.75;7.00;;;;;4.91;64.40;101129.59;5080127;28;45373;-52
2021/12/03 05:53:54;;;;;;;;;5.50;2.00;;;;;4.89;65.05;101121.81;5079381;28;45358;-53
2021/12/03 05:56:19;;;;;;;;;12.00;9.50;;;;;4.87;65.00;101120.22;5080238;28;45452;-53
2021/12/03 05:58:45;;;;;;;;;14.25;10.75;;;;;4.83;64.76;101126.63;5080064;28;45446;-49
2021/12/03 06:01:11;;;;;;;;;13.00;12.50;;;;;4.81;65.04;101112.72;5080041;28;45358;-54
2021/12/03 06:03:36;;;;;;;;;12.50;11.50;;;;;4.80;65.60;101108.38;5081012;28;45401;-54
2021/12/03 06:06:02;;;;;;;;;15.75;11.25;;;;;4.73;65.51;101086.84;5080872;28;45445;-53
2021/12/03 06:08:27;;;;;;;;;15.50;14.00;;;;;4.72;65.55;101090.44;5080261;28;45471;-52
2021/12/03 06:10:52;;;;;;;;;12.00;12.00;;;;;4.71;65.75;101079.03;5080805;28;45197;-53
2021/12/03 06:13:18;;;;;;;;;18.00;11.00;;;;;4.62;66.53;101084.06;5080241;28;45236;-50
2021/12/03 06:15:43;;;;;;;;;17.50;14.25;;;;;4.54;65.93;101071.38;5080217;28;45228;-53
2021/12/03 06:18:08;;;;;;;;;16.25;12.50;;;;;4.59;66.72;101090.38;5079563;28;47232;-52
2021/12/03 06:20:34;;;;;;;;;11.75;7.50;;;;;4.60;66.75;101093.88;5079834;28;45348;-54
2021/12/03 06:22:59;;;;;;;;;15.50;10.75;;;;;4.62;66.16;101098.09;5079787;28;45347;-53
2021/12/03 06:25:25;;;;;;;;;15.00;14.50;;;;;4.64;65.74;101100.63;5080140;28;45311;-49
2021/12/03 06:27:50;;;;;;;;;20.25;16.50;;;;;4.52;65.68;101080.34;5078929;28;45401;-52
2021/12/03 06:30:19;;;;;;;;;14.25;11.50;;;;;4.64;66.37;101104.13;5079574;28;45399;-58
2021/12/03 06:32:45;;;;;;;;;12.75;12.75;;;;;4.60;66.59;101097.34;5079591;28;45257;-51
2021/12/03 06:35:13;;;;;;;;;12.00;7.75;;;;;4.66;66.75;101115.38;5061528;28;45422;-50
2021/12/03 06:37:39;;;;;;;;;14.25;11.00;;;;;4.61;65.94;101098.19;5079476;28;46299;-51
2021/12/03 06:40:11;;;;;;;;;15.50;10.25;;;;;4.70;64.56;101111.59;5079140;28;45429;-52
2021/12/03 06:42:36;;;;;;;;;15.00;11.00;;;;;4.64;65.49;101108.53;5077950;28;45360;-56
2021/12/03 06:45:05;;;;;;;;;14.25;11.00;;;;;4.60;66.25;101099.16;5079569;28;45169;-52
2021/12/03 06:47:31;;;;;;;;;7.50;7.50;;;;;4.63;65.89;101110.31;5079121;28;46360;-52
2021/12/03 06:49:57;;;;;;;;;11.50;8.75;;;;;4.66;65.51;101111.91;5079030;28;45286;-52
2021/12/03 06:52:23;;;;;;;;;10.00;8.75;;;;;4.65;65.15;101107.59;5079319;28;45327;-52
2021/12/03 06:54:55;;;;;;;;;12.25;7.25;;;;;4.65;65.43;101105.81;5079370;28;45402;-55
2021/12/03 06:57:21;;;;;;;;;13.00;10.75;;;;;4.66;66.12;101109.28;5078292;28;45377;-50
2021/12/03 06:59:46;;;;;;;;;14.00;8.00;;;;;4.69;65.28;101104.66;5079144;28;45459;-52
2021/12/03 07:02:13;;;;;;;;;7.75;7.75;;;;;4.57;65.65;101088.81;5079225;28;45309;-53
2021/12/03 07:04:40;;;;;;;;;8.50;7.50;;;;;4.66;65.20;101101.38;5079336;28;45421;-53
2021/12/03 07:07:05;;;;;;;;;16.00;12.00;;;;;4.62;66.08;101103.34;5078927;28;47045;-55
2021/12/03 07:09:31;;;;;;;;;7.75;7.75;;;;;4.62;66.03;101089.34;5079040;28;45236;-53
2021/12/03 07:11:56;;;;;;;;;8.00;8.00;;;;;4.63;65.78;101099.75;5079077;28;45293;-51
2021/12/03 07:14:21;;;;;;;;;11.50;7.75;;;;;4.62;65.12;101103.34;5079123;28;45296;-56
2021/12/03 07:16:47;;;;;;;;;15.25;11.00;;;;;4.59;66.40;101100.91;5078613;28;46094;-49
2021/12/03 07:19:12;;;;;;;;;8.75;7.00;;;;;4.63;66.67;101099.75;5078992;28;45337;-52
2021/12/03 07:21:38;;;;;;;;;7.00;7.00;;;;;4.66;66.47;101096.09;5079015;28;45296;-54
2021/12/03 07:24:04;;;;;;;;;20.25;10.75;;;;;4.69;66.57;101085.38;5079052;28;45257;-52
2021/12/03 07:26:29;;;;;;;;;9.75;7.00;;;;;4.73;66.14;101076.31;5078749;28;46150;-57
2021/12/03 07:28:55;;;;;;;;;7.00;7.00;;;;;4.72;64.99;101079.91;5078898;28;45322;-51
2021/12/03 07:31:20;;;;;;;;;7.00;5.50;;;;;4.68;65.68;101073.97;5060615;28;45433;-52
2021/12/03 07:33:47;;;;;;;;;9.75;8.00;;;;;4.78;66.12;101078.66;5078638;28;45181;-55
2021/12/03 07:36:12;;;;;;;;;9.00;7.00;;;;;4.42;66.29;101016.88;5078549;28;45905;-57
2021/12/03 07:38:38;;;;;;;;;10.75;7.25;;;;;4.83;66.29;101089.72;5078225;28;45359;-55
2021/12/03 07:41:04;;;;;;;;;11.25;9.25;;;;;4.85;65.01;101087.84;5078608;28;45468;-54
2021/12/03 07:43:30;;;;;;;;;12.75;8.00;;;;;4.87;65.39;101101.75;5078545;28;45195;-53
2021/12/03 07:45:56;;;;;;;;;12.25;9.25;;;;;4.87;65.02;101097.31;5078151;28;45348;-51
2021/12/03 07:48:23;;;;;;;;;11.00;7.00;;;;;4.85;65.92;101090.47;5078372;28;45227;-52
2021/12/03 07:50:50;;;;;;;;;9.25;6.50;;;;;4.93;65.44;101088.16;5078353;28;45284;-53
2021/12/03 07:53:19;;;;;;;;;14.75;8.00;;;;;4.93;64.89;101085.53;5078368;28;45450;-49
2021/12/03 07:55:49;;;;;;;;;14.25;8.25;;;;;4.98;65.88;101091.34;5078056;28;45384;-53
2021/12/03 07:58:15;;;;;;;;;14.00;7.75;;;;;5.01;65.42;101093.75;5078297;28;45340;-53
2021/12/03 08:00:43;;;;;;;;;9.25;8.50;;;;;5.02;65.29;101084.94;5078134;28;45493;-50
2021/12/03 08:03:08;;;;;;;;;5.00;5.00;;;;;5.06;65.38;101080.31;5078183;28;45383;-52
2021/12/03 08:05:34;;;;;;;;;5.00;4.75;;;;;5.08;65.13;101084.50;5077906;28;45921;-49
2021/12/03 08:07:59;;;;;;;;;8.25;7.75;;;;;5.09;65.32;101078.28;5078201;28;45359;-49
2021/12/03 08:10:26;;;;;;;;;8.00;5.00;;;;;5.10;64.91;101077.34;5077180;28;45814;-52
2021/12/03 08:12:51;;;;;;;;;7.50;4.25;;;;;5.07;64.71;101067.00;5078401;28;45387;-50
2021/12/03 08:15:17;;;;;;;;;7.75;5.00;;;;;5.15;64.50;101083.16;5077960;28;47208;-53
2021/12/03 08:17:42;;;;;;;;;8.75;5.00;;;;;5.16;65.23;101073.44;5077631;28;45403;-50
2021/12/03 08:20:09;;;;;;;;;7.75;4.50;;;;;5.15;65.13;101064.69;5078030;28;45273;-52
2021/12/03 08:22:35;;;;;;;;;5.50;4.50;;;;;5.20;64.64;101069.66;5077164;28;45389;-51
2021/12/03 08:25:02;;;;;;;;;6.00;6.00;;;;;5.23;64.54;101074.72;5077571;28;46195;-50
2021/12/03 08:27:27;;;;;;;;;8.00;5.00;;;;;5.22;64.89;101065.97;5077666;28;45404;-52
2021/12/03 08:29:53;;;;;;;;;6.50;6.50;;;;;5.32;64.66;101078.53;5077624;28;45469;-52
2021/12/03 08:32:19;;;;;;;;;7.00;7.00;;;;;5.36;63.76;101080.00;5077671;28;45359;-51
2021/12/03 08:34:44;;;;;;;;;5.75;5.50;;;;;5.38;63.05;101075.47;5076774;28;45420;-51
2021/12/03 08:37:10;;;;;;;;;5.50;5.50;;;;;5.35;63.65;101054.56;5077526;28;45256;-50
2021/12/03 08:39:37;;;;;;;;;12.75;9.25;;;;;5.50;63.28;101078.09;5077427;28;45411;-49
2021/12/03 08:42:04;;;;;;;;;4.50;4.00;;;;;5.53;63.43;101065.66;5077862;28;45269;-49
2021/12/03 08:44:29;;;;;;;;;5.50;4.50;;;;;5.61;62.51;101082.66;5077005;28;46122;-49
2021/12/03 08:47:05;;;;;;;;;5.00;5.00;;;;;5.63;62.36;101075.44;5076362;28;45502;-49
2021/12/03 08:57:13;;;;;;;;;9.50;5.00;;;;;5.62;63.12;101086.13;5075816;28;45351;-57
2021/12/03 08:59:39;;;;;;;;;11.00;4.75;;;;;5.59;63.15;101089.81;5075834;28;45684;-52
2021/12/03 09:02:05;;;;;;;;;10.75;9.00;;;;;5.53;62.25;101084.97;5076039;28;45431;-51
2021/12/03 09:04:30;;;;;;;;;10.75;7.75;;;;;5.49;63.00;101076.41;5074490;28;46017;-53
2021/12/03 09:07:00;;;;;;;;;8.00;4.00;;;;;5.39;62.39;101056.03;5074593;28;45400;-52
2021/12/03 09:09:27;;;;;;;;;6.50;6.50;;;;;5.52;62.54;101070.09;5075268;28;45573;-52
2021/12/03 09:11:55;;;;;;;;;14.50;5.50;;;;;5.53;62.17;101084.97;5076424;28;45380;-55
2021/12/03 09:14:45;;;;;;;;;4.75;4.25;;;;;5.53;62.70;101071.78;5075975;28;46072;-52
2021/12/03 09:22:43;;;;;;;;;1.75;1.75;;;;;5.59;62.27;101065.22;5076073;28;45365;-53
2021/12/03 09:25:18;;;;;;;;;7.00;7.00;;;;;5.60;63.05;101069.53;5075866;28;47174;-49
2021/12/03 09:27:44;;;;;;;;;10.00;7.00;;;;;5.61;62.78;101064.19;5075585;28;45550;-50
2021/12/03 09:30:13;;;;;;;;;6.50;2.00;;;;;5.65;62.43;101054.25;5075841;28;45361;-53
2021/12/03 09:32:41;;;;;;;;;8.25;8.25;;;;;5.67;62.27;101054.97;5075859;28;45574;-51
2021/12/03 09:35:07;;;;;;;;;7.00;4.50;;;;;5.65;62.93;101052.47;5075554;28;46214;-55
2021/12/03 09:37:32;;;;;;;;;9.00;7.25;;;;;5.61;63.13;101034.31;5075587;28;45778;-49
2021/12/03 09:40:04;;;;;;;;;10.75;7.25;;;;;5.69;62.96;101042.53;5075588;28;45847;-52
2021/12/03 09:42:31;;;;;;;;;9.25;8.00;;;;;5.69;63.28;101040.72;5076424;28;45439;-49
2021/12/03 09:44:56;;;;;;;;;7.00;7.00;;;;;5.70;63.24;101036.28;5075382;28;46322;-50
2021/12/03 09:47:22;;;;;;;;;5.00;5.00;;;;;5.67;63.17;101032.06;5075580;28;45370;-52
2021/12/03 09:49:54;;;;;;;;;6.00;6.00;;;;;5.65;63.23;101031.34;5075938;28;45373;-52
2021/12/03 09:52:40;;;;;;;;;10.00;7.00;;;;;5.61;63.57;101021.09;5075870;28;45497;-50
2021/12/03 09:55:12;;;;;;;;;9.50;8.00;;;;;5.63;63.17;101017.38;5075327;28;47231;-48
2021/12/03 10:01:11;;;;;;;;;2.00;2.00;;;;;5.47;63.58;101028.16;5075605;28;45383;-52
2021/12/03 10:41:40;;;;;;;;;11.25;5.00;;;;;4.94;67.92;100974.72;4956838;28;45456;-56
2021/12/03 10:44:49;;;;;;;;;10.75;7.75;;;;;4.90;69.92;100967.97;4957139;28;45435;-50
2021/12/03 10:49:46;;;;;;;;;13.75;11.50;;;;;4.82;69.70;100958.88;4956354;28;46022;-49
2021/12/03 11:00:45;;;;;;;;;9.25;9.25;;;;;4.69;70.84;100932.53;5035406;28;46077;-55
2021/12/03 11:30:52;;;;;;;;;9.75;7.75;;;;;4.52;73.31;100890.69;4937104;28;45397;-49
2021/12/03 11:33:54;;;;;;;;;10.00;7.75;;;;;4.56;72.68;100892.16;4936593;28;45432;-57
2021/12/03 11:48:19;;;;;;;;;8.50;3.50;;;;;4.34;73.46;100840.06;4994906;28;45443;-53
2021/12/03 14:05:26;;;;;;;;;8.25;8.25;;;;;4.35;79.77;100602.13;5019114;28;45401;-56
2021/12/03 14:40:32;;;;;;;;;6.50;4.00;;;;;4.64;80.82;100534.97;5018282;28;45476;-58
2021/12/03 14:45:41;;;;;;;;;8.00;5.00;;;;;4.76;79.24;100530.56;5058385;28;45345;-55
2021/12/03 14:50:57;;;;;;;;;3.00;3.00;;;;;4.77;79.22;100518.25;5058016;28;46046;-55
2021/12/03 14:56:09;;;;;;;;;2.50;1.25;;;;;4.84;78.70;100524.72;5058088;28;45448;-55
2021/12/03 14:58:46;;;;;;;;;4.50;4.00;;;;;4.81;79.60;100517.91;5058157;28;45414;-56
2021/12/03 15:03:52;;;;;;;;;5.00;5.00;;;;;4.80;79.90;100496.94;5056886;28;45507;-56
2021/12/03 15:06:42;;;;;;;;;6.25;4.75;;;;;4.81;79.35;100498.63;5057819;28;45419;-56
2021/12/03 15:09:31;;;;;;;;;13.75;5.50;;;;;4.81;79.19;100490.72;5057996;28;45402;-56
2021/12/03 15:20:48;;;;;;;;;7.75;4.50;;;;;4.90;79.74;100480.31;5057930;28;45331;-55
2021/12/03 15:34:28;;;;;;;;;3.50;3.50;;;;;4.99;80.38;100462.97;4975382;28;46326;-56
2021/12/03 15:58:33;;;;;;;;;2.00;2.00;;;;;4.94;79.16;100450.13;4918517;28;45421;-54
2021/12/03 16:03:54;;;;;;;;;10.00;6.75;;;;;4.88;80.45;100432.13;4937319;28;45238;-55
2021/12/03 16:08:50;;;;;;;;;5.00;5.00;;;;;4.99;80.33;100432.16;4937865;28;45628;-57
2021/12/03 16:11:26;;;;;;;;;5.75;5.00;;;;;5.00;79.59;100425.09;4955373;28;45308;-57
2021/12/03 16:14:21;;;;;;;;;11.50;9.25;;;;;4.96;81.08;100410.47;4955345;28;45462;-56
2021/12/03 16:19:57;;;;;;;;;10.75;8.50;;;;;4.98;80.34;100395.38;4955101;28;45550;-56
2021/12/03 16:25:34;;;;;;;;;14.25;10.50;;;;;4.96;80.37;100369.13;4954960;28;45579;-53
2021/12/03 16:44:54;;;;;;;;;14.25;12.25;;;;;5.07;82.07;100338.47;5076121;28;45382;-53
2021/12/03 16:46:52;;;;;;;;;16.50;11.00;;;;;5.09;82.17;100344.44;5061871;28;45377;-52
2021/12/03 16:54:14;;;;;;;;;16.75;9.25;;;;;5.09;80.54;100328.63;5076239;28;45449;-52
2021/12/03 16:56:46;;;;;;;;;9.50;9.50;;;;;5.11;80.72;100324.91;5058221;28;45415;-53
2021/12/03 16:59:12;;;;;;;;;16.25;14.75;;;;;5.03;81.79;100311.50;5076327;28;46076;-52
2021/12/03 17:02:03;;;;;;;;;8.75;7.75;;;;;5.09;81.21;100315.44;5058059;28;45459;-51
2021/12/03 17:04:45;;;;;;;;;11.25;8.75;;;;;5.10;81.32;100317.97;5055627;28;45404;-55
2021/12/03 17:18:18;;;;;;;;;18.00;14.00;;;;;5.06;81.75;100298.09;5056111;28;45662;-51
2021/12/03 17:49:35;;;;;;;;;18.25;11.00;;;;;5.14;82.50;100253.50;5080018;28;45261;-55
2021/12/03 17:57:23;;;;;;;;;14.00;13.25;;;;;5.19;82.24;100243.41;5079649;28;45343;-54
2021/12/03 17:59:50;;;;;;;;;19.00;18.00;;;;;5.19;82.93;100243.41;5079677;28;45446;-51
2021/12/03 18:02:35;;;;;;;;;9.50;7.50;;;;;5.22;82.86;100234.38;5079212;28;46341;-53
2021/12/03 18:10:40;;;;;;;;;14.25;14.00;;;;;5.13;82.23;100183.25;4996959;28;45890;-53
2021/12/03 18:13:29;;;;;;;;;13.50;10.00;;;;;5.24;81.85;100203.47;4996698;28;47247;-53
2021/12/03 18:43:35;;;;;;;;;21.75;14.75;;;;;5.36;84.22;100149.72;4957657;28;45326;-51
2021/12/03 18:56:30;;;;;;;;;19.75;14.00;;;;;5.51;83.48;100123.84;5016293;28;45688;-53